Time;durP1;ratioP1;P1;durP2;ratioP2;P2;SDS_P1;SDS_P2;PMS_P1;PMS_P2;Temp;Humidity;BMP_temperature;BMP_pressure;BME280_temperature;BME280_humidity;BME280_pressure;Samples;Min_cycle;Max_cycle;Signal;HPM_P1;HPM_P2
2022/10/09 00:01:54;;;;;;;;;;;;;;;19.58;59.98;101708.78;2427649;73;51408;-76
2022/10/09 00:04:56;;;;;;;;;;;;;;;19.59;59.98;101717.16;2424161;73;51824;-76
2022/10/09 00:07:57;;;;;;;;;;;;;;;19.57;59.98;101721.84;2389589;73;51525;-76
2022/10/09 00:10:59;;;;;;;;;;;;;;;19.57;59.97;101724.06;2390428;73;51493;-77
2022/10/09 00:14:00;;;;;;;;;;;;;;;19.59;59.99;101731.93;2390172;73;50378;-76
2022/10/09 00:17:02;;;;;;;;;;;;;;;19.56;60.01;101732.27;2363192;73;51168;-77
2022/10/09 00:20:04;;;;;;;;;;;;;;;19.57;60.01;101740.64;2427712;73;50705;-77
2022/10/09 00:23:05;;;;;;;;;;;;;;;19.57;59.99;101740.17;2390383;73;50079;-77
2022/10/09 00:26:07;;;;;;;;;;;;;;;19.56;59.98;101749.71;2427500;73;50298;-77
2022/10/09 00:29:09;;;;;;;;;;;;;;;19.57;59.96;101746.02;2438032;72;52643;-76
2022/10/09 00:32:10;;;;;;;;;;;;;;;19.56;60.01;101750.55;2427779;73;51465;-77
2022/10/09 00:35:12;;;;;;;;;;;;;;;19.57;59.90;101752.72;2427480;73;50350;-76
2022/10/09 00:38:13;;;;;;;;;;;;;;;19.54;59.94;101758.42;2427562;73;50043;-76
2022/10/09 00:41:16;;;;;;;;;;;;;;;19.53;59.97;101760.27;2361767;73;49658;-76
2022/10/09 00:44:36;;;;;;;;;;;;;;;19.55;59.92;101760.13;2427543;73;51579;-77
2022/10/09 00:47:39;;;;;;;;;;;;;;;19.56;59.91;101767.16;2427670;72;52356;-76
2022/10/09 00:50:42;;;;;;;;;;;;;;;19.54;59.89;101769.16;2427762;73;50388;-76
2022/10/09 00:53:43;;;;;;;;;;;;;;;19.53;59.89;101770.17;2393916;73;49726;-77
2022/10/09 00:56:45;;;;;;;;;;;;;;;19.53;59.94;101774.20;2427638;73;50348;-77
2022/10/09 00:59:47;;;;;;;;;;;;;;;19.54;59.86;101770.00;2427759;73;50724;-77
2022/10/09 01:02:48;;;;;;;;;;;;;;;19.54;59.90;101777.22;2427728;73;51480;-77
2022/10/09 01:06:01;;;;;;;;;;;;;;;19.53;59.86;101775.55;2368082;73;50964;-77
2022/10/09 01:09:04;;;;;;;;;;;;;;;19.52;59.90;101780.08;2427677;73;50525;-77
2022/10/09 01:12:14;;;;;;;;;;;;;;;19.53;59.82;101782.25;2427661;73;50365;-76
2022/10/09 01:15:17;;;;;;;;;;;;;;;19.53;59.83;101783.59;2427413;73;50411;-77
2022/10/09 01:18:20;;;;;;;;;;;;;;;19.53;59.80;101782.25;2426682;73;50332;-77
2022/10/09 01:21:32;;;;;;;;;;;;;;;19.50;59.83;101784.77;2427383;72;50457;-77
2022/10/09 01:24:41;;;;;;;;;;;;;;;19.51;59.79;101785.59;2388603;73;50746;-77
2022/10/09 01:27:43;;;;;;;;;;;;;;;19.52;59.78;101788.61;2425801;73;51486;-76
2022/10/09 01:30:44;;;;;;;;;;;;;;;19.51;59.77;101792.31;2363250;73;51007;-77
2022/10/09 01:33:46;;;;;;;;;;;;;;;19.50;59.80;101793.33;2427162;73;50290;-77
2022/10/09 01:36:48;;;;;;;;;;;;;;;19.50;59.78;101790.13;2427511;73;50349;-77
2022/10/09 01:39:49;;;;;;;;;;;;;;;19.49;59.79;101792.45;2427344;73;50665;-76
2022/10/09 01:42:51;;;;;;;;;;;;;;;19.48;59.85;101792.64;2432635;72;52604;-77
2022/10/09 01:45:52;;;;;;;;;;;;;;;19.48;59.78;101798.01;2426919;73;50723;-76
2022/10/09 01:48:55;;;;;;;;;;;;;;;19.48;59.79;101804.72;2399725;72;50879;-76
2022/10/09 01:52:02;;;;;;;;;;;;;;;19.49;59.74;101807.22;2383946;73;51548;-76
2022/10/09 01:55:08;;;;;;;;;;;;;;;19.50;59.65;101811.61;2383791;74;52623;-75
2022/10/09 01:58:11;;;;;;;;;;;;;;;19.49;59.69;101809.91;2376514;75;51548;-76
2022/10/09 02:01:15;;;;;;;;;;;;;;;19.49;59.71;101814.44;2376506;75;50753;-76
2022/10/09 02:04:16;;;;;;;;;;;;;;;19.46;59.75;101814.26;2376403;75;50422;-76
2022/10/09 02:07:18;;;;;;;;;;;;;;;19.48;59.74;101814.11;2376448;75;51531;-75
2022/10/09 02:10:19;;;;;;;;;;;;;;;19.47;59.68;101811.07;2373287;75;50677;-76
2022/10/09 02:13:21;;;;;;;;;;;;;;;19.47;59.71;101815.96;2376329;75;50381;-76
2022/10/09 02:16:24;;;;;;;;;;;;;;;19.47;59.65;101815.09;2394140;73;50336;-76
2022/10/09 02:19:33;;;;;;;;;;;;;;;19.48;59.63;101811.42;2405553;73;50741;-76
2022/10/09 02:22:35;;;;;;;;;;;;;;;19.47;59.67;101813.75;2354241;74;51603;-76
2022/10/09 02:25:37;;;;;;;;;;;;;;;19.47;59.63;101822.67;2405545;73;51496;-77
2022/10/09 02:28:39;;;;;;;;;;;;;;;19.46;59.64;101816.94;2427523;73;50675;-76
2022/10/09 02:31:41;;;;;;;;;;;;;;;19.45;59.66;101816.62;2427423;73;51488;-76
2022/10/09 02:34:42;;;;;;;;;;;;;;;19.46;59.67;101822.82;2437580;72;51379;-76
2022/10/09 02:37:44;;;;;;;;;;;;;;;19.45;59.70;101827.35;2437627;72;51870;-77
2022/10/09 02:40:46;;;;;;;;;;;;;;;19.45;59.70;101829.20;2427390;73;51587;-76
2022/10/09 02:43:47;;;;;;;;;;;;;;;19.45;59.65;101831.38;2427254;73;51509;-76
2022/10/09 02:46:49;;;;;;;;;;;;;;;19.44;59.63;101828.34;2362879;73;51167;-76
2022/10/09 02:49:50;;;;;;;;;;;;;;;19.45;59.55;101825.17;2427473;73;51528;-75
2022/10/09 02:52:52;;;;;;;;;;;;;;;19.46;59.56;101822.82;2389812;73;50308;-76
2022/10/09 02:55:53;;;;;;;;;;;;;;;19.45;59.56;101827.35;2389813;73;50046;-76
2022/10/09 02:58:55;;;;;;;;;;;;;;;19.43;59.59;101825.83;2368385;73;51222;-77
2022/10/09 03:01:56;;;;;;;;;;;;;;;19.45;59.62;101830.55;2386492;73;50652;-76
2022/10/09 03:04:58;;;;;;;;;;;;;;;19.45;59.56;101834.57;2413438;73;51429;-76
2022/10/09 03:08:00;;;;;;;;;;;;;;;19.44;59.56;101832.87;2427616;73;51581;-76
2022/10/09 03:11:01;;;;;;;;;;;;;;;19.43;59.56;101827.17;2368443;73;52483;-76
2022/10/09 03:14:03;;;;;;;;;;;;;;;19.44;59.50;101839.58;2418558;73;51616;-77
2022/10/09 03:17:04;;;;;;;;;;;;;;;19.44;59.50;101838.23;2427522;72;50367;-76
2022/10/09 03:20:06;;;;;;;;;;;;;;;19.44;59.49;101838.23;2390152;73;49981;-76
2022/10/09 03:23:08;;;;;;;;;;;;;;;19.44;59.46;101835.05;2364007;73;50949;-76
2022/10/09 03:26:10;;;;;;;;;;;;;;;19.44;59.47;101849.81;2427407;72;52619;-77
2022/10/09 03:29:12;;;;;;;;;;;;;;;19.42;59.48;101842.92;2427734;73;50660;-76
2022/10/09 03:32:13;;;;;;;;;;;;;;;19.42;59.48;101846.94;2390297;73;51520;-76
2022/10/09 03:35:15;;;;;;;;;;;;;;;19.40;59.53;101847.63;2362755;73;51797;-76
2022/10/09 03:38:17;;;;;;;;;;;;;;;19.41;59.44;101850.13;2390440;73;50743;-76
2022/10/09 03:41:18;;;;;;;;;;;;;;;19.40;59.47;101849.80;2427572;73;51547;-76
2022/10/09 03:44:20;;;;;;;;;;;;;;;19.41;59.46;101851.98;2427265;73;51623;-76
2022/10/09 03:47:21;;;;;;;;;;;;;;;19.41;59.39;101854.16;2363178;73;50977;-76
2022/10/09 03:50:23;;;;;;;;;;;;;;;19.41;59.41;101853.33;2427576;73;51533;-76
2022/10/09 03:53:24;;;;;;;;;;;;;;;19.40;59.41;101852.48;2389572;73;53667;-76
2022/10/09 03:56:26;;;;;;;;;;;;;;;19.38;59.34;101858.52;2390001;73;51549;-76
2022/10/09 03:59:28;;;;;;;;;;;;;;;19.40;59.38;101859.70;2363261;73;49414;-76
2022/10/09 04:02:30;;;;;;;;;;;;;;;19.41;59.33;101857.35;2427640;73;50391;-77
2022/10/09 04:05:33;;;;;;;;;;;;;;;19.41;59.35;101862.21;2427348;72;51637;-76
2022/10/09 04:08:34;;;;;;;;;;;;;;;19.39;59.31;101858.84;2427408;73;50363;-76
2022/10/09 04:11:36;;;;;;;;;;;;;;;19.39;59.34;101871.42;2437794;72;51005;-76
2022/10/09 04:14:37;;;;;;;;;;;;;;;19.39;59.35;101872.77;2427343;73;50804;-77
2022/10/09 04:17:39;;;;;;;;;;;;;;;19.36;59.35;101865.36;2390109;73;50165;-76
2022/10/09 04:20:42;;;;;;;;;;;;;;;19.36;59.35;101872.08;2427503;73;50384;-76
2022/10/09 04:23:44;;;;;;;;;;;;;;;19.37;59.34;101870.26;2381502;73;51330;-77
2022/10/09 04:26:45;;;;;;;;;;;;;;;19.38;59.30;101875.13;2427558;73;50731;-76
2022/10/09 04:29:47;;;;;;;;;;;;;;;19.38;59.35;101878.64;2390279;73;51925;-76
2022/10/09 04:32:49;;;;;;;;;;;;;;;19.36;59.40;101884.16;2390292;73;50616;-76
2022/10/09 04:35:51;;;;;;;;;;;;;;;19.39;59.33;101882.16;2437525;72;51341;-76
2022/10/09 04:38:52;;;;;;;;;;;;;;;19.36;59.37;101880.13;2427436;72;51570;-77
2022/10/09 04:41:54;;;;;;;;;;;;;;;19.36;59.32;101882.81;2427535;73;50390;-76
2022/10/09 04:44:55;;;;;;;;;;;;;;;19.36;59.35;101880.13;2390012;73;50751;-77
2022/10/09 04:47:57;;;;;;;;;;;;;;;19.37;59.39;101885.02;2362995;73;51411;-76
2022/10/09 04:50:59;;;;;;;;;;;;;;;19.35;59.36;101885.16;2427653;73;50799;-77
2022/10/09 04:54:01;;;;;;;;;;;;;;;19.36;59.40;101882.81;2374384;74;51428;-76
2022/10/09 04:57:02;;;;;;;;;;;;;;;19.35;59.40;101891.88;2369795;73;51367;-76
2022/10/09 05:00:04;;;;;;;;;;;;;;;19.34;59.44;101886.18;2348511;73;52223;-76
2022/10/09 05:03:06;;;;;;;;;;;;;;;19.35;59.43;101888.36;2395989;73;50616;-77
2022/10/09 05:06:08;;;;;;;;;;;;;;;19.36;59.63;101895.39;2427422;73;51489;-76
2022/10/09 05:09:09;;;;;;;;;;;;;;;19.32;60.08;101898.07;2427658;73;50857;-76
2022/10/09 05:12:11;;;;;;;;;;;;;;;19.33;60.19;101897.89;2368393;73;49503;-76
2022/10/09 05:15:12;;;;;;;;;;;;;;;19.31;60.07;101903.91;2427376;73;50362;-76
2022/10/09 05:18:14;;;;;;;;;;;;;;;19.31;60.23;101903.08;2342312;74;50614;-76
2022/10/09 05:21:16;;;;;;;;;;;;;;;19.32;60.13;101900.25;2360377;73;51415;-77
2022/10/09 05:24:17;;;;;;;;;;;;;;;19.26;54.49;101897.34;2350717;74;50931;-76
2022/10/09 05:27:19;;;;;;;;;;;;;;;19.11;54.11;101901.08;2420525;73;50663;-76
2022/10/09 05:30:21;;;;;;;;;;;;;;;19.08;55.39;101905.42;2427719;73;51604;-76
2022/10/09 05:33:22;;;;;;;;;;;;;;;19.09;57.15;101913.83;2394021;73;53595;-77
2022/10/09 05:36:24;;;;;;;;;;;;;;;19.12;57.51;101912.17;2364334;73;50769;-76
2022/10/09 05:39:25;;;;;;;;;;;;;;;19.13;57.47;101921.89;2418632;73;52453;-76
2022/10/09 05:42:27;;;;;;;;;;;;;;;19.12;57.34;101917.03;2413676;73;50086;-75
2022/10/09 05:45:28;;;;;;;;;;;;;;;19.12;57.22;101922.91;2412409;73;50402;-76
2022/10/09 05:48:30;;;;;;;;;;;;;;;19.12;57.35;101924.25;2359255;73;51209;-76
2022/10/09 05:51:32;;;;;;;;;;;;;;;19.13;57.35;101931.28;2398887;73;52464;-76
2022/10/09 05:54:34;;;;;;;;;;;;;;;19.10;57.42;101943.17;2419398;73;50315;-76
2022/10/09 05:57:35;;;;;;;;;;;;;;;19.12;57.50;101947.05;2427716;73;50426;-74
2022/10/09 06:00:37;;;;;;;;;;;;;;;19.11;57.44;101943.53;2368471;73;51828;-72
2022/10/09 06:03:38;;;;;;;;;;;;;;;19.11;52.77;101952.92;2423985;73;50721;-76
2022/10/09 06:06:40;;;;;;;;;;;;;;;18.76;51.23;101956.95;2427683;73;50696;-77
2022/10/09 06:09:42;;;;;;;;;;;;;;;18.62;51.95;101953.73;2427625;73;50737;-76
2022/10/09 06:12:43;;;;;;;;;;;;;;;18.66;53.32;101955.63;2368259;73;50941;-78
2022/10/09 06:15:52;;;;;;;;;;;;;;;18.74;53.24;101956.22;2395753;73;51426;-76
2022/10/09 06:18:53;;;;;;;;;;;;;;;18.76;53.35;101961.80;2427633;73;51439;-76
2022/10/09 06:21:55;;;;;;;;;;;;;;;18.93;52.87;101965.00;2427787;73;51534;-76
2022/10/09 06:24:57;;;;;;;;;;;;;;;19.01;53.80;101963.36;2401644;73;49689;-76
2022/10/09 06:27:58;;;;;;;;;;;;;;;19.20;53.81;101973.95;2404656;73;50156;-77
2022/10/09 06:31:10;;;;;;;;;;;;;;;19.25;54.15;101970.80;2376068;74;50760;-76
2022/10/09 06:34:12;;;;;;;;;;;;;;;19.33;54.38;101982.44;2404552;74;50236;-77
2022/10/09 06:37:13;;;;;;;;;;;;;;;19.38;54.63;101978.45;2376004;74;49589;-78
2022/10/09 06:40:15;;;;;;;;;;;;;;;19.39;54.81;101985.50;2404901;74;50714;-76
2022/10/09 06:43:16;;;;;;;;;;;;;;;19.38;54.96;101983.31;2404797;74;50703;-76
2022/10/09 06:46:18;;;;;;;;;;;;;;;19.40;55.17;101984.52;2376167;74;50764;-79
2022/10/09 06:49:19;;;;;;;;;;;;;;;19.40;55.28;101991.22;2378050;74;50798;-80
2022/10/09 06:52:21;;;;;;;;;;;;;;;19.41;55.46;101987.53;2406383;74;50718;-78
2022/10/09 06:55:23;;;;;;;;;;;;;;;19.42;55.59;101998.12;2396201;73;50736;-80
2022/10/09 06:58:24;;;;;;;;;;;;;;;19.44;55.74;101995.27;2429911;73;50702;-79
2022/10/09 07:01:26;;;;;;;;;;;;;;;19.46;55.73;102008.04;2365276;73;51313;-80
2022/10/09 07:04:28;;;;;;;;;;;;;;;19.46;55.86;102008.04;2429545;73;50808;-80
2022/10/09 07:07:29;;;;;;;;;;;;;;;19.47;55.95;102011.05;2429390;73;51617;-80
2022/10/09 07:10:31;;;;;;;;;;;;;;;19.47;56.04;102011.05;2429725;73;51530;-79
2022/10/09 07:13:33;;;;;;;;;;;;;;;19.48;56.20;102011.42;2365092;73;51148;-79
2022/10/09 07:16:35;;;;;;;;;;;;;;;19.49;56.34;102011.24;2429126;73;51492;-81
2022/10/09 07:19:37;;;;;;;;;;;;;;;19.54;56.86;102011.61;2429782;73;50742;-80
2022/10/09 07:22:39;;;;;;;;;;;;;;;19.53;57.36;102015.82;2392210;73;50104;-77
2022/10/09 07:25:40;;;;;;;;;;;;;;;19.52;57.06;102020.35;2410596;72;50860;-78
2022/10/09 07:28:42;;;;;;;;;;;;;;;19.57;57.23;102026.57;2427778;72;50749;-77
2022/10/09 07:31:43;;;;;;;;;;;;;;;19.59;57.29;102024.58;2427753;73;50387;-79
2022/10/09 07:34:45;;;;;;;;;;;;;;;19.58;57.61;102026.94;2427628;73;51415;-78
2022/10/09 07:37:47;;;;;;;;;;;;;;;19.58;57.57;102025.09;2437757;72;50970;-77
2022/10/09 07:40:48;;;;;;;;;;;;;;;19.58;57.67;102032.30;2390216;73;51408;-78
2022/10/09 07:43:50;;;;;;;;;;;;;;;19.58;57.72;102033.65;2427232;73;51491;-78
2022/10/09 07:46:52;;;;;;;;;;;;;;;19.57;57.75;102034.63;2390436;73;51542;-77
2022/10/09 07:49:53;;;;;;;;;;;;;;;19.54;57.79;102036.28;2363928;73;51730;-79
2022/10/09 07:52:55;;;;;;;;;;;;;;;19.56;57.76;102036.98;2390845;73;51420;-78
2022/10/09 07:55:56;;;;;;;;;;;;;;;;;;2377826;73;53182;-79
2022/10/09 07:58:58;;;;;;;;;;;;;;;19.54;57.88;102038.47;2428104;73;50748;-79
2022/10/09 08:01:59;;;;;;;;;;;;;;;19.55;57.87;102037.98;2424507;73;50204;-79
2022/10/09 08:05:01;;;;;;;;;;;;;;;19.55;57.92;102040.17;2396125;73;50044;-79
2022/10/09 08:08:03;;;;;;;;;;;;;;;19.56;57.92;102046.38;2427767;73;50318;-81
2022/10/09 08:11:11;;;;;;;;;;;;;;;19.56;58.00;102045.03;2396413;73;50620;-79
2022/10/09 08:14:14;;;;;;;;;;;;;;;19.62;58.04;102048.93;2424339;73;51329;-77
2022/10/09 08:17:16;;;;;;;;;;;;;;;19.60;58.29;102047.77;2427615;73;51518;-77
2022/10/09 08:20:17;;;;;;;;;;;;;;;19.63;58.38;102047.95;2427712;73;51560;-77
2022/10/09 08:23:19;;;;;;;;;;;;;;;19.64;58.53;102047.78;2395970;73;51572;-77
2022/10/09 08:26:21;;;;;;;;;;;;;;;19.66;58.75;102052.50;2433031;72;51288;-79
2022/10/09 08:29:22;;;;;;;;;;;;;;;19.64;58.80;102053.15;2429015;73;50748;-78
2022/10/09 08:32:24;;;;;;;;;;;;;;;19.62;58.78;102053.80;2428430;73;50748;-79
2022/10/09 08:35:26;;;;;;;;;;;;;;;19.63;58.76;102052.81;2428261;73;51500;-78
2022/10/09 08:38:27;;;;;;;;;;;;;;;19.64;58.73;102061.71;2371405;73;51339;-78
2022/10/09 08:41:30;;;;;;;;;;;;;;;19.66;58.92;102065.92;2428226;73;50418;-78
2022/10/09 08:44:38;;;;;;;;;;;;;;;19.66;59.13;102060.55;2428165;73;50508;-78
2022/10/09 08:47:41;;;;;;;;;;;;;;;19.67;59.12;102070.31;2428381;73;50433;-79
2022/10/09 08:50:45;;;;;;;;;;;;;;;19.66;59.18;102069.12;2396422;73;50060;-79
2022/10/09 08:53:51;;;;;;;;;;;;;;;19.63;59.10;102066.24;2427859;73;52316;-78
2022/10/09 08:56:53;;;;;;;;;;;;;;;19.63;59.04;102066.24;2427892;73;50765;-79
2022/10/09 08:59:54;;;;;;;;;;;;;;;19.58;59.12;102067.20;2428145;73;51408;-79
2022/10/09 09:03:04;;;;;;;;;;;;;;;19.57;59.09;102062.81;2368996;73;52462;-79
2022/10/09 09:06:09;;;;;;;;;;;;;;;19.54;59.11;102061.80;2428107;73;50639;-78
2022/10/09 09:09:12;;;;;;;;;;;;;;;19.51;59.10;102060.77;2427988;73;50731;-79
2022/10/09 09:12:19;;;;;;;;;;;;;;;19.54;58.99;102062.62;2426872;73;50746;-77
2022/10/09 09:15:28;;;;;;;;;;;;;;;19.54;58.96;102064.48;2424568;73;51222;-77
2022/10/09 09:18:41;;;;;;;;;;;;;;;19.59;58.83;102064.34;2428057;73;50474;-78
2022/10/09 09:21:50;;;;;;;;;;;;;;;19.59;58.80;102064.86;2428131;73;50690;-78
2022/10/09 09:24:53;;;;;;;;;;;;;;;19.59;58.78;102055.45;2396295;73;50755;-79
2022/10/09 09:27:56;;;;;;;;;;;;;;;19.59;58.75;102056.30;2395632;73;50282;-78
2022/10/09 09:30:59;;;;;;;;;;;;;;;19.59;58.74;102051.43;2427995;73;50755;-78
2022/10/09 09:34:02;;;;;;;;;;;;;;;19.59;58.72;102054.11;2427807;73;50521;-77
2022/10/09 09:37:04;;;;;;;;;;;;;;;19.60;58.68;102058.50;2427732;73;51620;-77
2022/10/09 09:40:05;;;;;;;;;;;;;;;19.58;58.69;102056.47;2424178;73;50962;-78
2022/10/09 09:43:08;;;;;;;;;;;;;;;19.56;58.74;102052.58;2427665;73;51427;-78
2022/10/09 09:46:12;;;;;;;;;;;;;;;19.56;58.75;102058.45;2426842;73;50793;-77
2022/10/09 09:49:18;;;;;;;;;;;;;;;19.53;58.81;102052.06;2427682;73;51406;-78
2022/10/09 09:52:20;;;;;;;;;;;;;;;19.51;58.79;102046.00;2396148;73;49804;-78
2022/10/09 09:55:26;;;;;;;;;;;;;;;19.51;58.79;102041.97;2402324;73;50719;-79
2022/10/09 09:58:29;;;;;;;;;;;;;;;19.50;58.80;102046.50;2391075;73;50347;-79
2022/10/09 10:01:31;;;;;;;;;;;;;;;19.50;58.80;102041.13;2421902;73;50437;-78
2022/10/09 10:04:32;;;;;;;;;;;;;;;19.49;58.78;102043.45;2438314;72;50128;-79
2022/10/09 10:07:35;;;;;;;;;;;;;;;19.49;58.81;102039.94;2391027;73;50826;-78
2022/10/09 10:10:36;;;;;;;;;;;;;;;19.49;58.77;102039.43;2427958;73;50406;-78
2022/10/09 10:13:38;;;;;;;;;;;;;;;19.49;58.77;102041.28;2427881;73;50378;-78
2022/10/09 10:16:40;;;;;;;;;;;;;;;19.50;58.77;102038.95;2427965;73;51531;-79
2022/10/09 10:19:42;;;;;;;;;;;;;;;19.46;58.74;102039.75;2427915;73;49694;-78
2022/10/09 10:22:48;;;;;;;;;;;;;;;19.45;58.80;102033.20;2390745;73;51561;-78
2022/10/09 10:25:50;;;;;;;;;;;;;;;19.42;58.89;102033.49;2426860;73;50454;-79
2022/10/09 10:29:02;;;;;;;;;;;;;;;19.40;58.91;102028.80;2424773;73;51063;-78
2022/10/09 10:32:11;;;;;;;;;;;;;;;19.41;58.94;102019.23;2427962;73;51458;-79
2022/10/09 10:35:17;;;;;;;;;;;;;;;19.39;58.88;102017.70;2427859;73;50467;-79
2022/10/09 10:38:20;;;;;;;;;;;;;;;19.40;58.86;102024.78;2396463;73;51484;-77
2022/10/09 10:41:23;;;;;;;;;;;;;;;19.39;58.87;102017.20;2395537;73;52834;-75
2022/10/09 10:44:44;;;;;;;;;;;;;;;19.36;58.92;102023.72;2427662;73;50644;-76
2022/10/09 10:47:49;;;;;;;;;;;;;;;19.40;58.83;102022.92;2427360;73;51610;-74
2022/10/09 10:50:52;;;;;;;;;;;;;;;19.38;58.76;102024.08;2427769;73;50394;-75
2022/10/09 10:54:14;;;;;;;;;;;;;;;19.42;58.83;102017.39;2395619;73;51968;-75
2022/10/09 10:57:29;;;;;;;;;;;;;;;19.42;58.81;102010.20;2427606;73;50752;-75
2022/10/09 11:00:30;;;;;;;;;;;;;;;19.45;58.87;102005.02;2427120;73;51546;-75
2022/10/09 11:03:33;;;;;;;;;;;;;;;19.42;58.90;102002.15;2427590;73;51519;-76
2022/10/09 11:06:37;;;;;;;;;;;;;;;19.42;58.91;101998.59;2425253;73;51395;-75
2022/10/09 11:09:40;;;;;;;;;;;;;;;19.41;59.03;102000.45;2427606;73;51630;-77
2022/10/09 11:12:43;;;;;;;;;;;;;;;19.44;58.86;101997.95;2427478;72;51496;-75
2022/10/09 11:15:49;;;;;;;;;;;;;;;19.51;58.59;101997.67;2427508;73;51517;-76
2022/10/09 11:19:02;;;;;;;;;;;;;;;19.47;58.76;101997.62;2396109;73;51592;-76
2022/10/09 11:22:20;;;;;;;;;;;;;;;19.44;59.31;101992.58;2427360;73;50309;-76
2022/10/09 11:25:29;;;;;;;;;;;;;;;19.43;59.11;101987.72;2427453;73;51570;-76
2022/10/09 11:28:32;;;;;;;;;;;;;;;19.41;59.05;101988.88;2427768;73;51620;-75
2022/10/09 11:31:38;;;;;;;;;;;;;;;19.40;59.05;101980.48;2427688;73;51789;-75
2022/10/09 11:34:47;;;;;;;;;;;;;;;19.38;59.08;101979.29;2426681;73;50497;-77
2022/10/09 11:37:51;;;;;;;;;;;;;;;19.41;59.01;101971.42;2427665;73;51543;-76
2022/10/09 11:40:52;;;;;;;;;;;;;;;19.42;58.92;101975.31;2424973;73;51471;-75
2022/10/09 11:43:59;;;;;;;;;;;;;;;19.40;58.99;101971.09;2437914;72;50966;-76
2022/10/09 11:47:02;;;;;;;;;;;;;;;19.38;58.98;101974.43;2427666;72;51532;-76
2022/10/09 11:50:08;;;;;;;;;;;;;;;19.39;58.97;101962.17;2398835;73;51494;-77
2022/10/09 11:53:10;;;;;;;;;;;;;;;19.41;58.90;101959.34;2426687;73;51610;-76
2022/10/09 11:56:22;;;;;;;;;;;;;;;19.38;59.03;101947.08;2432444;72;51270;-76
2022/10/09 11:59:29;;;;;;;;;;;;;;;19.40;59.18;101942.91;2427767;73;51568;-77
2022/10/09 12:02:31;;;;;;;;;;;;;;;19.41;59.16;101946.77;2427777;73;50334;-76
2022/10/09 12:05:40;;;;;;;;;;;;;;;19.40;59.18;101937.55;2390452;73;50588;-77
2022/10/09 12:08:43;;;;;;;;;;;;;;;19.38;59.17;101938.20;2409070;73;52487;-75
2022/10/09 12:11:46;;;;;;;;;;;;;;;19.39;59.18;101942.55;2427761;73;50116;-75
2022/10/09 12:14:49;;;;;;;;;;;;;;;19.40;59.14;101942.91;2425849;73;50787;-75
2022/10/09 12:17:50;;;;;;;;;;;;;;;19.39;59.62;101940.70;2427698;73;51544;-75
2022/10/09 12:20:52;;;;;;;;;;;;;;;19.44;59.46;101937.55;2438354;72;50113;-75
2022/10/09 12:23:54;;;;;;;;;;;;;;;19.43;59.76;101937.22;2427534;73;50720;-77
2022/10/09 12:26:56;;;;;;;;;;;;;;;19.45;59.61;101929.86;2427882;73;52461;-77
2022/10/09 12:29:58;;;;;;;;;;;;;;;19.43;59.72;101933.20;2428201;73;51473;-77
2022/10/09 12:33:02;;;;;;;;;;;;;;;19.43;59.81;101929.17;2432080;72;50128;-78
2022/10/09 12:36:05;;;;;;;;;;;;;;;19.42;59.93;101922.97;2393363;72;50511;-77
2022/10/09 12:39:13;;;;;;;;;;;;;;;19.45;59.78;101917.78;2427911;73;51562;-76
2022/10/09 12:42:17;;;;;;;;;;;;;;;19.42;59.81;101907.34;2428415;73;50272;-76
2022/10/09 12:45:25;;;;;;;;;;;;;;;19.46;59.66;101913.58;2396462;73;52746;-75
2022/10/09 12:48:27;;;;;;;;;;;;;;;19.46;59.78;101903.34;2428946;73;50675;-75
2022/10/09 12:51:29;;;;;;;;;;;;;;;19.47;59.68;101896.97;2427861;73;51494;-74
2022/10/09 12:54:31;;;;;;;;;;;;;;;19.48;59.66;101899.50;2395949;73;51614;-75
2022/10/09 12:57:32;;;;;;;;;;;;;;;19.45;59.83;101894.97;2428581;72;50996;-75
2022/10/09 13:00:34;;;;;;;;;;;;;;;19.47;59.82;101892.94;2431616;73;50704;-76
2022/10/09 13:03:42;;;;;;;;;;;;;;;19.49;59.67;101895.80;2428175;73;50798;-75
2022/10/09 13:06:45;;;;;;;;;;;;;;;19.53;59.43;101889.64;2427598;72;50438;-75
2022/10/09 13:09:46;;;;;;;;;;;;;;;19.50;59.54;101885.94;2394223;73;52569;-75
2022/10/09 13:12:49;;;;;;;;;;;;;;;19.45;59.82;101888.25;2427619;73;50190;-76
2022/10/09 13:15:58;;;;;;;;;;;;;;;19.41;60.08;101886.88;2425402;72;50477;-76
2022/10/09 13:19:00;;;;;;;;;;;;;;;19.39;60.18;101883.50;2427629;73;50429;-75
2022/10/09 13:22:19;;;;;;;;;;;;;;;19.36;60.27;101880.13;2394387;73;51076;-75
2022/10/09 13:25:20;;;;;;;;;;;;;;;19.37;60.29;101883.68;2400567;73;51521;-75
2022/10/09 13:28:22;;;;;;;;;;;;;;;19.40;60.13;101878.50;2427390;73;51616;-75
2022/10/09 13:31:23;;;;;;;;;;;;;;;19.40;60.14;101874.47;2427816;73;51627;-76
2022/10/09 13:34:27;;;;;;;;;;;;;;;19.38;60.12;101876.47;2437702;72;50966;-76
2022/10/09 13:37:29;;;;;;;;;;;;;;;19.37;60.17;101867.58;2427778;73;50677;-76
2022/10/09 13:40:31;;;;;;;;;;;;;;;19.34;60.19;101866.52;2427502;72;50475;-76
2022/10/09 13:43:32;;;;;;;;;;;;;;;19.33;60.22;101864.34;2390112;73;50369;-76
2022/10/09 13:46:34;;;;;;;;;;;;;;;19.32;60.25;101865.36;2438061;72;51219;-75
2022/10/09 13:49:36;;;;;;;;;;;;;;;19.32;60.25;101864.02;2428000;73;50397;-74
2022/10/09 13:52:37;;;;;;;;;;;;;;;19.31;60.24;101870.36;2390246;73;50434;-74
2022/10/09 13:55:39;;;;;;;;;;;;;;;19.32;60.16;101862.67;2417529;73;50608;-76
2022/10/09 13:58:40;;;;;;;;;;;;;;;19.32;60.17;101865.86;2381800;74;50918;-76
2022/10/09 14:01:42;;;;;;;;;;;;;;;19.30;60.23;101861.98;2384887;74;51499;-74
2022/10/09 14:04:43;;;;;;;;;;;;;;;19.30;60.22;101856.62;2354185;74;51480;-76
2022/10/09 14:07:45;;;;;;;;;;;;;;;19.28;60.25;101855.92;2384839;74;51381;-76
2022/10/09 14:10:47;;;;;;;;;;;;;;;19.28;60.26;101854.59;2381660;74;49532;-76
2022/10/09 14:13:48;;;;;;;;;;;;;;;19.28;60.26;101849.22;2354259;74;50415;-74
2022/10/09 14:16:50;;;;;;;;;;;;;;;19.27;60.22;101843.52;2354481;74;50688;-76
2022/10/09 14:19:51;;;;;;;;;;;;;;;19.29;60.19;101843.34;2354231;74;51815;-76
2022/10/09 14:22:53;;;;;;;;;;;;;;;19.30;60.10;101841.02;2388769;73;49640;-76
2022/10/09 14:25:57;;;;;;;;;;;;;;;19.33;60.13;101838.85;2399191;73;50196;-76
2022/10/09 14:28:59;;;;;;;;;;;;;;;19.36;59.93;101830.48;2346736;75;50752;-76
2022/10/09 14:32:00;;;;;;;;;;;;;;;19.41;59.74;101831.34;2376565;74;50461;-76
2022/10/09 14:35:02;;;;;;;;;;;;;;;19.42;59.83;101830.84;2373080;75;49501;-75
2022/10/09 14:38:04;;;;;;;;;;;;;;;19.45;59.69;101822.49;2373216;75;51102;-76
2022/10/09 14:41:05;;;;;;;;;;;;;;;19.46;59.66;101821.48;2346370;75;50749;-76
2022/10/09 14:44:08;;;;;;;;;;;;;;;19.47;59.59;101812.41;2376347;75;50399;-76
2022/10/09 14:47:09;;;;;;;;;;;;;;;19.49;59.50;101811.75;2373199;75;50275;-75
2022/10/09 14:50:11;;;;;;;;;;;;;;;19.50;59.45;101818.83;2346152;75;50381;-76
2022/10/09 14:53:13;;;;;;;;;;;;;;;19.49;59.46;101810.41;2360154;73;50410;-75
2022/10/09 14:56:15;;;;;;;;;;;;;;;19.49;59.55;101807.22;2408969;73;52213;-75
2022/10/09 14:59:17;;;;;;;;;;;;;;;19.47;59.67;101811.07;2381676;74;51016;-76
2022/10/09 15:02:18;;;;;;;;;;;;;;;19.47;59.59;101807.05;2354397;74;52743;-76
2022/10/09 15:05:20;;;;;;;;;;;;;;;19.48;59.48;101802.03;2399464;73;51503;-76
2022/10/09 15:08:21;;;;;;;;;;;;;;;19.48;59.51;101804.72;2398863;73;51410;-76
2022/10/09 15:11:23;;;;;;;;;;;;;;;19.44;59.64;101799.31;2390672;73;49846;-76
2022/10/09 15:14:25;;;;;;;;;;;;;;;19.44;59.60;101802.00;2412380;73;49489;-76
2022/10/09 15:17:26;;;;;;;;;;;;;;;19.42;59.64;101799.97;2427157;73;50389;-76
2022/10/09 15:20:28;;;;;;;;;;;;;;;19.36;59.93;101798.27;2389952;73;52778;-76
2022/10/09 15:23:29;;;;;;;;;;;;;;;19.35;59.94;101794.42;2427301;73;51528;-76
2022/10/09 15:26:31;;;;;;;;;;;;;;;19.34;59.79;101797.61;2399282;73;50177;-76
2022/10/09 15:29:33;;;;;;;;;;;;;;;19.34;59.92;101795.41;2390327;73;50139;-75
2022/10/09 15:32:35;;;;;;;;;;;;;;;19.29;59.94;101787.86;2390055;73;50369;-76
2022/10/09 15:35:39;;;;;;;;;;;;;;;19.30;60.26;101788.70;2427519;73;51563;-76
2022/10/09 15:38:40;;;;;;;;;;;;;;;19.30;60.03;101782.82;2427953;72;23250;-76
2022/10/09 15:41:42;;;;;;;;;;;;;;;19.33;59.93;101781.16;2390170;73;51634;-76